Latest Weather Observations for Low Isles

IDQ60801

Issued at 5:02 pm EST Monday 26 September 2022 (issued every 10 minutes, with the page automatically refreshed every 10 minutes)

About weather observations | Map of weather stations | Latest weather observations for QLD | Other Formats
Station Details ID: 031037 Name: LOW ISLES LIGHTHOUSE Lat: -16.38 Lon: 145.56 Height: 2.9 m
Data from the previous 72 hours. | See also: Recent months at Low Isles
Date/Time
EST
Temp
°C
App
Temp
°C
Dew
Point
°C
Rel
Hum
%
Delta-T
°C
Wind Press
QNH
hPa
Press
MSL
hPa
Rain since
9am
mm
Dir  Spd
km/h
Gust
km/h
Spd
kts
Gust
kts
26/05:00pm 27.7 28.0 21.5 69 4.1 ESE 22 28 12 15 1010.9 1010.8 0.0
26/04:30pm 28.3 28.9 21.3 65 4.7 ESE 20 26 11 14 1010.8 1010.7 0.0
26/04:00pm 29.3 30.0 21.5 63 5.2 ESE 20 26 11 14 1010.8 1010.7 0.0
26/03:30pm 29.0 29.8 21.7 64 4.9 ESE 20 26 11 14 1010.8 1010.7 0.0
26/03:00pm 30.2 31.5 22.4 63 5.3 ESE 19 24 10 13 1011.0 1010.9 0.0
26/02:30pm 29.7 30.8 21.9 63 5.3 ESE 19 24 10 13 1011.3 1011.2 0.0
26/02:00pm 30.9 31.2 20.8 55 6.7 ESE 20 26 11 14 1011.6 1011.5 0.0
26/01:30pm 30.4 31.4 21.8 60 5.8 ESE 19 24 10 13 1012.1 1012.0 0.0
26/01:00pm 30.7 31.1 20.9 56 6.5 ESE 20 26 11 14 1012.8 1012.7 0.0
26/12:30pm 30.4 30.5 20.3 54 6.7 ESE 20 26 11 14 1013.4 1013.3 0.0
26/12:00pm 30.5 30.9 20.7 55 6.5 ESE 19 24 10 13 1013.8 1013.7 0.0
26/11:30am 30.9 31.9 21.7 58 6.2 ESE 19 24 10 13 1014.1 1014.0 0.0
26/11:00am 29.5 30.0 21.2 61 5.5 ESE 20 24 11 13 1014.3 1014.2 0.0
26/10:30am 29.2 29.6 20.9 61 5.5 ESE 20 24 11 13 1014.3 1014.2 0.0
26/10:00am 29.1 29.7 21.1 62 5.3 ESE 19 24 10 13 1014.5 1014.4 0.0
26/09:30am 29.2 29.7 21.9 64 4.9 ESE 22 28 12 15 1014.5 1014.4 0.0
26/09:00am 28.2 28.7 21.2 65 4.7 ESE 20 24 11 13 1014.6 1014.5 0.0
26/08:30am 27.9 28.1 20.5 64 4.9 E 20 24 11 13 1014.6 1014.5 0.0
26/08:00am 27.4 27.8 20.7 67 4.4 E 19 22 10 12 1014.3 1014.2 0.0
26/07:30am 26.7 27.0 20.8 70 3.9 E 20 26 11 14 1013.8 1013.7 0.0
26/07:00am 26.0 27.0 21.0 74 3.3 E 17 20 9 11 1013.3 1013.2 0.0
26/06:30am 25.4 26.2 20.6 75 3.1 E 17 22 9 12 1013.0 1012.9 0.0
26/06:00am 25.0 26.3 20.9 78 2.7 E 15 20 8 11 1012.8 1012.7 0.0
26/05:30am 25.1 25.8 20.4 75 3.1 E 17 20 9 11 1012.4 1012.3 0.0
26/05:00am 24.9 25.8 20.8 78 2.7 E 17 20 9 11 1012.2 1012.1 0.0
26/04:30am 24.4 25.4 20.3 78 2.7 E 15 19 8 10 1012.1 1012.0 0.0
26/04:00am 24.3 25.6 20.2 78 2.7 E 13 17 7 9 1011.9 1011.8 0.0
26/03:30am 24.4 25.7 20.1 77 2.8 E 13 17 7 9 1011.7 1011.6 0.0
26/03:00am 24.7 25.6 20.0 75 3.0 E 15 17 8 9 1011.9 1011.8 0.0
26/02:30am 25.0 25.8 19.8 73 3.4 E 15 19 8 10 1012.3 1012.2 0.0
26/02:00am 25.0 25.3 19.6 72 3.5 E 17 20 9 11 1012.6 1012.5 0.0
26/01:30am 25.5 25.9 19.9 71 3.6 E 17 20 9 11 1012.9 1012.8 0.0
26/01:00am 25.5 26.0 20.1 72 3.5 E 17 20 9 11 1013.2 1013.1 0.0
26/12:30am 25.4 26.0 20.2 73 3.4 E 17 20 9 11 1013.5 1013.4 0.0
26/12:00am 25.5 26.5 20.3 73 3.4 E 15 20 8 11 1013.7 1013.6 0.0
 
Date/Time
EST
Temp
°C
App
Temp
°C
Dew
Point
°C
Rel
Hum
%
Delta-T
°C
Wind Press
QNH
hPa
Press
MSL
hPa
Rain since
9am
mm
Dir  Spd
km/h
Gust
km/h
Spd
kts
Gust
kts
25/11:30pm 25.6 26.2 20.2 72 3.5 E 17 20 9 11 1013.9 1013.8 0.0
25/11:00pm 25.9 26.2 20.5 72 3.5 E 19 22 10 12 1014.0 1013.9 0.0
25/10:30pm 25.8 26.6 20.6 73 3.4 E 17 22 9 12 1014.0 1013.9 0.0
25/10:00pm 26.2 26.7 20.8 72 3.6 ESE 19 22 10 12 1014.1 1014.0 0.0
25/09:30pm 26.1 26.6 20.9 73 3.4 E 19 24 10 13 1014.1 1014.0 0.0
25/09:00pm 26.2 27.2 21.0 73 3.4 E 17 20 9 11 1014.0 1013.9 0.0
25/08:30pm 26.2 27.0 21.4 75 3.2 E 19 24 10 13 1013.6 1013.5 0.0
25/08:00pm 26.3 26.9 21.3 74 3.3 E 20 24 11 13 1013.4 1013.3 0.0
25/07:30pm 26.3 26.8 20.8 71 3.6 ESE 19 22 10 12 1012.9 1012.8 0.0
25/07:00pm 26.5 27.4 21.5 74 3.3 ESE 19 24 10 13 1012.6 1012.5 0.0
25/06:30pm 26.5 27.1 21.3 73 3.4 ESE 20 26 11 14 1012.4 1012.3 0.0
25/06:00pm 26.9 27.6 21.6 72 3.5 ESE 20 26 11 14 1012.0 1011.9 0.0
25/05:30pm 27.4 27.8 21.7 71 3.8 ESE 22 26 12 14 1011.6 1011.5 0.0
25/05:00pm 28.0 28.8 21.8 69 4.2 ESE 20 26 11 14 1011.5 1011.4 0.0
25/04:30pm 28.1 28.9 21.4 67 4.5 ESE 19 24 10 13 1011.2 1011.1 0.0
25/04:00pm 28.8 29.8 21.8 66 4.7 ESE 19 22 10 12 1011.3 1011.2 0.0
25/03:30pm 29.1 30.2 21.3 62 5.2 ESE 17 22 9 12 1011.4 1011.3 0.0
25/03:00pm 30.1 31.4 21.7 60 5.7 ESE 17 22 9 12 1011.6 1011.5 0.0
25/02:30pm 30.1 32.2 22.5 63 5.2 ESE 15 20 8 11 1011.9 1011.8 0.0
25/02:00pm 30.0 31.7 21.7 61 5.6 SE 15 20 8 11 1012.2 1012.1 0.0
25/01:30pm 30.2 31.5 21.6 60 5.8 SE 17 20 9 11 1012.4 1012.3 0.0
25/01:00pm 29.7 31.3 22.2 64 5.1 SE 17 20 9 11 1012.6 1012.5 0.0
25/12:30pm 30.2 32.6 23.6 67 4.6 SE 17 20 9 11 1012.9 1012.8 0.0
25/12:00pm 30.1 32.4 23.5 67 4.5 SE 17 20 9 11 1013.4 1013.3 0.0
25/11:30am 29.5 31.4 22.7 67 4.6 SE 17 20 9 11 1013.7 1013.6 0.0
25/11:00am 29.1 31.8 23.5 72 3.9 SE 15 17 8 9 1014.0 1013.9 0.0
25/10:30am 28.7 31.1 22.9 71 4.0 SE 15 17 8 9 1014.3 1014.2 0.0
25/10:00am 28.3 30.3 22.3 70 4.1 SE 15 19 8 10 1014.5 1014.4 0.0
25/09:30am 27.9 29.7 22.6 73 3.6 SE 17 19 9 10 1014.6 1014.5 0.0
25/09:00am 28.1 30.3 21.9 69 4.2 E 13 19 7 10 1014.5 1014.4 0.0
25/08:30am 27.6 30.6 21.9 71 3.8 E 9 13 5 7 1014.2 1014.1 0.0
25/08:00am 27.3 29.6 21.3 69 4.0 E 11 13 6 7 1014.0 1013.9 0.0
25/07:30am 26.0 28.1 21.0 74 3.3 ENE 11 15 6 8 1013.5 1013.4 0.0
25/07:00am 24.9 27.4 21.0 79 2.6 ENE 9 15 5 8 1013.2 1013.1 0.0
25/06:30am 24.5 26.5 20.8 80 2.4 ENE 11 15 6 8 1012.8 1012.7 0.0
25/06:00am 24.3 26.3 20.8 81 2.3 ENE 11 13 6 7 1012.4 1012.3 0.0
25/05:30am 24.5 26.5 20.8 80 2.4 ENE 11 17 6 9 1012.0 1011.9 0.0
25/05:00am 24.8 26.0 21.5 82 2.2 NE 17 20 9 11 1011.6 1011.5 0.0
25/04:30am 24.4 25.6 20.7 80 2.4 NE 15 19 8 10 1011.4 1011.3 0.0
25/04:00am 24.3 25.6 20.2 78 2.7 NE 13 15 7 8 1011.1 1011.0 0.0
25/03:30am 24.6 25.7 20.5 78 2.7 NE 15 17 8 9 1011.2 1011.1 0.0
25/03:00am 24.7 26.7 20.8 79 2.6 NE 11 15 6 8 1011.4 1011.3 0.0
25/02:30am 24.6 26.6 20.7 79 2.6 NE 11 13 6 7 1011.6 1011.5 0.0
25/02:00am 24.7 27.1 20.8 79 2.6 NE 9 13 5 7 1011.9 1011.8 0.0
25/01:30am 24.9 26.6 21.0 79 2.6 ENE 13 17 7 9 1012.0 1011.9 0.0
25/01:00am 24.8 26.4 20.7 78 2.7 NE 13 15 7 8 1012.3 1012.2 0.0
25/12:30am 25.1 26.5 21.0 78 2.7 NE 15 17 8 9 1012.6 1012.5 0.0
25/12:00am 24.8 27.2 20.9 79 2.6 ENE 9 13 5 7 1012.8 1012.7 0.0
 
Date/Time
EST
Temp
°C
App
Temp
°C
Dew
Point
°C
Rel
Hum
%
Delta-T
°C
Wind Press
QNH
hPa
Press
MSL
hPa
Rain since
9am
mm
Dir  Spd
km/h
Gust
km/h
Spd
kts
Gust
kts
24/11:30pm 25.0 26.3 20.9 78 2.7 NE 15 17 8 9 1013.1 1013.0 0.0
24/11:00pm 25.2 27.3 20.9 77 2.8 ENE 11 13 6 7 1013.1 1013.0 0.0
24/10:30pm 25.7 27.3 21.4 77 2.8 ENE 15 20 8 11 1013.2 1013.1 0.0
24/10:00pm 25.5 27.3 21.2 77 2.8 E 13 17 7 9 1013.2 1013.1 0.0
24/09:30pm 26.1 27.8 21.7 77 2.9 E 15 17 8 9 1013.1 1013.0 0.0
24/09:00pm 25.9 28.1 21.8 78 2.7 E 13 15 7 8 1013.0 1012.9 0.0
24/08:30pm 26.2 28.4 21.8 77 2.9 E 13 15 7 8 1012.5 1012.4 0.0
24/08:00pm 26.1 28.6 21.7 77 2.9 E 11 15 6 8 1012.3 1012.2 0.0
24/07:30pm 25.9 28.3 21.6 77 2.9 E 11 15 6 8 1012.1 1012.0 0.0
24/07:00pm 26.1 28.3 21.1 74 3.3 E 11 15 6 8 1011.7 1011.6 0.0
24/06:30pm 26.5 28.1 20.8 71 3.8 ENE 13 17 7 9 1011.2 1011.1 0.0
24/06:00pm 27.0 28.5 21.3 71 3.8 ENE 15 17 8 9 1010.6 1010.5 0.0
24/05:30pm 27.9 29.5 21.4 67 4.3 NE 15 19 8 10 1010.3 1010.2 0.0
24/05:00pm 28.5 30.0 21.3 65 4.8 ENE 15 19 8 10 1009.9 1009.8 0.0
24/04:30pm 28.9 30.2 21.7 65 4.8 E 17 22 9 12 1009.8 1009.7 0.0
24/04:00pm 29.7 31.1 21.9 63 5.3 E 17 22 9 12 1009.7 1009.6 0.0
24/03:30pm 30.3 32.3 23.0 65 5.0 E 17 22 9 12 1009.8 1009.7 0.0
24/03:00pm 31.1 32.7 22.1 58 6.1 E 17 22 9 12 1010.0 1009.9 0.0
24/02:30pm 31.1 32.4 22.4 60 5.9 E 19 24 10 13 1010.2 1010.1 0.0
24/02:00pm 31.1 32.7 22.1 58 6.1 ESE 17 24 9 13 1010.5 1010.4 0.0
24/01:30pm 31.5 33.8 22.8 60 6.0 E 15 20 8 11 1010.8 1010.7 0.0
24/01:00pm 31.5 34.2 22.8 60 6.0 E 13 20 7 11 1011.2 1011.1 0.0
24/12:30pm 30.6 33.0 22.2 61 5.7 E 13 17 7 9 1011.7 1011.6 0.0
24/12:00pm 30.4 32.8 22.3 62 5.5 ESE 13 17 7 9 1012.2 1012.1 0.0
24/11:30am 29.5 31.8 22.7 67 4.6 SE 15 17 8 9 1012.7 1012.6 0.0
24/11:00am 29.2 31.7 23.2 70 4.1 SE 15 19 8 10 1013.1 1013.0 0.0
24/10:30am 28.6 31.2 23.3 73 3.6 SE 15 17 8 9 1013.3 1013.2 0.0
24/10:00am 28.0 30.6 22.7 73 3.6 SE 13 17 7 9 1013.3 1013.2 0.0
24/09:30am 27.6 30.0 23.0 76 3.1 SE 15 19 8 10 1013.4 1013.3 0.0
24/09:00am 27.1 29.5 22.9 78 2.9 ESE 15 20 8 11 1013.3 1013.2 0.0
24/08:30am 26.6 30.3 23.3 82 2.3 S 9 13 5 7 1013.2 1013.1 0.0
24/08:00am 26.5 30.3 22.8 80 2.5 S 7 11 4 6 1012.9 1012.8 0.0
24/07:30am 25.7 30.8 22.6 83 2.1 CALM 0 0 0 0 1012.5 1012.4 0.0
24/07:00am 25.4 28.4 22.7 85 1.8 WSW 11 13 6 7 1012.3 1012.2 0.0
24/06:30am 25.2 28.9 22.5 85 1.8 WSW 7 9 4 5 1011.8 1011.7 0.0
24/06:00am 25.2 28.3 22.9 87 1.6 SW 11 13 6 7 1011.2 1011.1 0.0
24/05:30am 25.2 28.5 22.5 85 1.8 WSW 9 11 5 6 1010.8 1010.7 0.0
24/05:00am 25.2 28.5 22.5 85 1.8 WSW 9 11 5 6 1010.5 1010.4 0.0
24/04:30am 25.2 28.1 22.5 85 1.8 WSW 11 15 6 8 1010.1 1010.0 0.0
24/04:00am 25.3 28.4 22.8 86 1.7 WSW 11 15 6 8 1010.2 1010.1 0.0
24/03:30am 25.3 28.6 22.6 85 1.8 SW 9 11 5 6 1010.2 1010.1 0.0
24/03:00am 25.3 28.4 22.8 86 1.7 SW 11 13 6 7 1010.3 1010.2 0.0
24/02:30am 25.3 28.6 22.6 85 1.8 SW 9 11 5 6 1010.5 1010.4 0.0
24/02:00am 25.5 28.8 22.6 84 2.0 SW 9 11 5 6 1010.6 1010.5 0.0
24/01:30am 25.6 29.2 23.1 86 1.7 WSW 9 11 5 6 1011.0 1010.9 0.0
24/01:00am 25.0 28.7 21.5 81 2.3 NE 4 9 2 5 1011.4 1011.3 0.0
24/12:30am 25.2 28.8 22.1 83 2.1 NE 6 9 3 5 1011.7 1011.6 0.0
24/12:00am 25.0 28.5 22.1 84 1.9 NNE 7 7 4 4 1011.9 1011.8 0.0
 
Date/Time
EST
Temp
°C
App
Temp
°C
Dew
Point
°C
Rel
Hum
%
Delta-T
°C
Wind Press
QNH
hPa
Press
MSL
hPa
Rain since
9am
mm
Dir  Spd
km/h
Gust
km/h
Spd
kts
Gust
kts
23/11:30pm 25.0 28.5 21.9 83 2.1 NNE 6 7 3 4 1012.2 1012.1 0.0
23/11:00pm 24.9 28.2 21.8 83 2.1 NNE 7 9 4 5 1012.4 1012.3 0.0
23/10:30pm 25.0 28.2 21.7 82 2.2 NE 7 9 4 5 1012.3 1012.2 0.0
23/10:00pm 25.1 28.3 21.6 81 2.3 NE 7 7 4 4 1012.2 1012.1 0.0
23/09:30pm 25.4 28.2 22.3 83 2.1 NE 11 15 6 8 1012.1 1012.0 0.0
23/09:00pm 25.2 28.8 22.1 83 2.1 ENE 6 9 3 5 1011.9 1011.8 0.0
23/08:30pm 25.2 28.5 21.9 82 2.2 E 7 9 4 5 1011.7 1011.6 0.0
23/08:00pm 25.5 28.7 21.6 79 2.6 ENE 7 9 4 5 1011.6 1011.5 0.0
23/07:30pm 25.8 28.3 21.7 78 2.7 NE 11 13 6 7 1011.4 1011.3 0.0
23/07:00pm 26.0 28.3 21.4 76 3.1 NE 11 15 6 8 1011.1 1011.0 0.0
23/06:30pm 26.5 28.5 21.5 74 3.3 NE 13 15 7 8 1010.8 1010.7 0.0
23/06:00pm 27.4 29.6 21.9 72 3.7 NE 13 17 7 9 1010.4 1010.3 0.0
23/05:30pm 28.1 30.4 22.1 70 4.0 NE 13 17 7 9 1010.2 1010.1 0.0

Other formats

Comma delimited format used in spreadsheet applications
http://www.bom.gov.au/fwo/IDQ60801/IDQ60801.94285.axf

JavaScript Object Notation format (JSON) in row-major order
http://www.bom.gov.au/fwo/IDQ60801/IDQ60801.94285.json

Data quality

Most of these data are generated automatically and are frequently updated. Quality checks on data are not normally performed. It is possible for incorrect values to appear. Refer to information at About Latest Weather Observations and please check the disclaimer before using these data.